Time,TemperatureF,DewpointF,PressureIn,WindDirection,WindDirectionDegrees,WindSpeedMPH,WindSpeedGustMPH,Humidity,HourlyPrecipIn,Conditions,Clouds,dailyrainin,SoftwareType,DateUTC
2013-02-15 00:22:00,25.0,-99.9,29.81,NNW,329,13.0,21.0,-999,-99.99,,,-99.99,,2013-02-15 05:22:00,
2013-02-15 00:52:00,24.0,-99.9,29.82,NNW,336,12.0,22.0,-999,-99.99,,,-99.99,,2013-02-15 05:52:00,
2013-02-15 01:52:00,23.0,-99.9,29.84,NNW,331,11.0,19.0,-999,-99.99,,,-99.99,,2013-02-15 06:52:00,
2013-02-15 02:21:00,22.0,-99.9,29.85,NW,316,16.0,21.0,-999,-99.99,,,-99.99,,2013-02-15 07:21:00,
2013-02-15 03:22:00,20.0,-99.9,29.88,NNW,328,15.0,23.0,-999,-99.99,,,-99.99,,2013-02-15 08:22:00,
2013-02-15 03:53:00,19.0,-99.9,29.89,NNW,327,13.0,23.0,-999,-99.99,,,-99.99,,2013-02-15 08:53:00,
2013-02-15 04:22:00,19.0,-99.9,29.89,NW,304,17.0,23.0,-999,-99.99,,,-99.99,,2013-02-15 09:22:00,
2013-02-15 04:52:00,19.0,-99.9,29.90,NW,304,14.0,18.0,-999,-99.99,,,-99.99,,2013-02-15 09:52:00,
2013-02-15 05:22:00,19.0,-99.9,29.91,WNW,303,15.0,20.0,-999,-99.99,,,-99.99,,2013-02-15 10:22:00,
2013-02-15 05:52:00,18.0,-99.9,29.93,NW,312,17.0,22.0,-999,-99.99,,,-99.99,,2013-02-15 10:52:00,
2013-02-15 06:52:00,17.0,-99.9,29.96,NW,312,16.0,22.0,-999,-99.99,,,-99.99,,2013-02-15 11:52:00,
2013-02-15 07:22:00,17.0,-99.9,29.97,NW,317,13.0,17.0,-999,-99.99,,,-99.99,,2013-02-15 12:22:00,
2013-02-15 08:22:00,16.0,-99.9,29.99,NW,322,10.0,17.0,-999,-99.99,,,-99.99,,2013-02-15 13:22:00,
2013-02-15 08:52:00,16.0,-99.9,30.00,NNW,334,11.0,15.0,-999,-99.99,,,-99.99,,2013-02-15 13:52:00,
2013-02-15 09:52:00,17.0,-99.9,30.02,NW,314,9.0,14.0,-999,-99.99,,,-99.99,,2013-02-15 14:52:00,
2013-02-15 10:22:00,17.0,-99.9,30.02,NW,321,7.0,13.0,-999,-99.99,,,-99.99,,2013-02-15 15:22:00,
2013-02-15 11:22:00,18.0,-99.9,30.03,NW,313,11.0,16.0,-999,-99.99,,,-99.99,,2013-02-15 16:22:00,
2013-02-15 11:52:00,18.0,-99.9,30.04,NW,307,11.0,13.0,-999,-99.99,,,-99.99,,2013-02-15 16:52:00,
2013-02-15 12:52:00,19.0,-99.9,30.04,WSW,256,10.0,13.0,-999,-99.99,,,-99.99,,2013-02-15 17:52:00,
2013-02-15 13:22:00,19.0,-99.9,30.03,West,275,10.0,13.0,-999,-99.99,,,-99.99,,2013-02-15 18:22:00,
2013-02-15 14:22:00,20.0,-99.9,30.03,WNW,295,9.0,12.0,-999,-99.99,,,-99.99,,2013-02-15 19:22:00,
2013-02-15 14:52:00,20.0,-99.9,30.03,WNW,285,10.0,13.0,-999,-99.99,,,-99.99,,2013-02-15 19:52:00,
2013-02-15 15:53:00,20.0,-99.9,30.03,WNW,289,8.0,11.0,-999,-99.99,,,-99.99,,2013-02-15 20:53:00,
2013-02-15 16:22:00,20.0,-99.9,30.04,West,280,9.0,12.0,-999,-99.99,,,-99.99,,2013-02-15 21:22:00,
2013-02-15 16:52:00,20.0,-99.9,30.04,West,265,9.0,13.0,-999,-99.99,,,-99.99,,2013-02-15 21:52:00,
2013-02-15 17:22:00,19.0,-99.9,30.05,WSW,257,13.0,14.0,-999,-99.99,,,-99.99,,2013-02-15 22:22:00,
2013-02-15 17:42:00,20.0,-99.9,30.05,West,264,6.0,10.0,-999,-99.99,,,-99.99,,2013-02-15 22:42:00,
2013-02-15 18:32:00,19.0,-99.9,30.07,WNW,294,11.0,15.0,-999,-99.99,,,-99.99,,2013-02-15 23:32:00,
2013-02-15 18:52:00,18.0,-99.9,30.08,WNW,291,17.0,25.0,-999,-99.99,,,-99.99,,2013-02-15 23:52:00,
2013-02-15 19:22:00,18.0,-99.9,30.09,WNW,303,21.0,27.0,-999,-99.99,,,-99.99,,2013-02-16 00:22:00,
2013-02-15 19:52:00,17.0,-99.9,30.10,NW,311,18.0,27.0,-999,-99.99,,,-99.99,,2013-02-16 00:52:00,
2013-02-15 20:21:00,17.0,-99.9,30.11,NW,314,12.0,21.0,-999,-99.99,,,-99.99,,2013-02-16 01:21:00,
2013-02-15 20:52:00,17.0,-99.9,30.10,NW,326,12.0,19.0,-999,-99.99,,,-99.99,,2013-02-16 01:52:00,
2013-02-15 21:32:00,17.0,-99.9,30.11,NW,316,10.0,16.0,-999,-99.99,,,-99.99,,2013-02-16 02:32:00,
2013-02-15 21:52:00,16.0,-99.9,30.11,NW,316,15.0,19.0,-999,-99.99,,,-99.99,,2013-02-16 02:52:00,
2013-02-15 22:22:00,15.0,-99.9,30.11,NW,322,12.0,16.0,-999,-99.99,,,-99.99,,2013-02-16 03:22:00,
2013-02-15 22:52:00,16.0,-99.9,30.10,WNW,289,10.0,15.0,-999,-99.99,,,-99.99,,2013-02-16 03:52:00,
2013-02-15 23:21:00,15.0,-99.9,30.09,WNW,286,9.0,15.0,-999,-99.99,,,-99.99,,2013-02-16 04:21:00,
2013-02-15 23:42:00,15.0,-99.9,30.09,WNW,284,10.0,14.0,-999,-99.99,,,-99.99,,2013-02-16 04:42:00,